Bitte eine E-Mail-Adresse für das Benutzerkonto eingeben. Ein Bestätigungscode wird dann an diese verschickt. Sobald der Code vorliegt, kann ein neues Passwort für das Benutzerkonto festgelegt werden.

 

 

 
NEU! ab. 1.4.
Nortel Info 128,740 MHz

WebCam

  
Kamera Halle
Kamera Vorfeld
Wetter EDDS

METAR

EDDS 170450Z 09001KT 0300 R25/0700N FZFG FEW001 M03/M03 Q1017 =
AMD EDDS 170202Z 1702/1724 VRB03KT 9999 SCT030 BKN045 TEMPO 1702/1708 0200 FZFG BKN001 BECMG 1709/1711 21005KT


TAF

AMD EDDS 170202Z 1702/1724 VRB03KT 9999 SCT030 BKN045 TEMPO 1702/1708 0200 FZFG BKN001 BECMG 1709/1711 21005KT =


SR/SS

07:08 / 15:26 UTC
(EDSO 17-12-2018)